createdAt,value
2023-05-06T00:00:11.198Z,32.56
2023-05-06T00:01:11.210Z,32.56
2023-05-06T00:02:11.207Z,32.55
2023-05-06T00:03:11.331Z,32.55
2023-05-06T00:04:11.275Z,32.52
2023-05-06T00:05:11.683Z,32.49
2023-05-06T00:06:11.217Z,32.58
2023-05-06T00:07:11.240Z,32.41
2023-05-06T00:08:11.263Z,32.45
2023-05-06T00:09:11.263Z,32.42
2023-05-06T00:10:11.351Z,32.51
2023-05-06T00:11:11.275Z,32.52
2023-05-06T00:12:11.302Z,32.57
2023-05-06T00:13:11.315Z,32.51
2023-05-06T00:14:11.335Z,32.45
2023-05-06T00:15:11.607Z,32.55
2023-05-06T00:16:11.421Z,32.34
2023-05-06T00:17:11.355Z,32.44
2023-05-06T00:18:11.334Z,32.44
2023-05-06T00:19:11.352Z,32.42
2023-05-06T00:20:11.382Z,32.41
2023-05-06T00:21:11.429Z,32.52
2023-05-06T00:22:11.449Z,32.41
2023-05-06T00:23:11.462Z,32.51
2023-05-06T00:24:11.444Z,32.48
2023-05-06T00:25:11.684Z,32.41
2023-05-06T00:26:11.458Z,32.37
2023-05-06T00:27:11.518Z,32.38
2023-05-06T00:28:11.528Z,32.41
2023-05-06T00:29:11.528Z,32.31
2023-05-06T00:30:11.554Z,32.31
2023-05-06T00:31:11.605Z,32.28
2023-05-06T00:32:11.678Z,32.30
2023-05-06T00:33:11.733Z,32.27
2023-05-06T00:34:11.627Z,32.30
2023-05-06T00:35:11.674Z,32.24
2023-05-06T00:36:11.623Z,32.24
2023-05-06T00:37:11.652Z,32.27
2023-05-06T00:38:11.601Z,32.30
2023-05-06T00:39:11.626Z,32.33
2023-05-06T00:40:11.617Z,32.31
2023-05-06T00:41:11.664Z,32.29
2023-05-06T00:42:11.682Z,32.37
2023-05-06T00:43:11.695Z,32.31
2023-05-06T00:44:11.705Z,32.33
2023-05-06T00:45:11.974Z,32.30
2023-05-06T00:46:11.806Z,32.40
2023-05-06T00:47:11.739Z,32.31
2023-05-06T00:48:11.797Z,32.27
2023-05-06T00:49:11.924Z,32.33
2023-05-06T00:50:11.857Z,32.34
2023-05-06T00:51:11.850Z,32.37
2023-05-06T00:52:11.850Z,32.51
2023-05-06T00:53:11.847Z,32.48
2023-05-06T00:54:11.881Z,32.62
2023-05-06T00:55:11.916Z,32.57
2023-05-06T00:56:11.935Z,32.65
2023-05-06T00:57:11.992Z,32.58
2023-05-06T00:58:11.931Z,32.71
2023-05-06T00:59:11.975Z,32.69
2023-05-06T01:00:12.003Z,32.80
2023-05-06T01:01:12.112Z,32.76
2023-05-06T01:02:12.118Z,32.83
2023-05-06T01:03:12.092Z,32.86
2023-05-06T01:04:12.054Z,32.89
2023-05-06T01:05:12.443Z,32.79
2023-05-06T01:06:12.093Z,32.83
2023-05-06T01:07:12.125Z,32.77
2023-05-06T01:08:12.176Z,32.81
2023-05-06T01:09:12.144Z,32.77
2023-05-06T01:10:12.184Z,32.81
2023-05-06T01:11:13.515Z,32.87
2023-05-06T01:12:12.156Z,32.96
2023-05-06T01:13:12.272Z,32.96
2023-05-06T01:14:12.099Z,32.97
2023-05-06T01:15:12.327Z,32.95
2023-05-06T01:16:12.014Z,32.93
2023-05-06T01:17:12.060Z,33.01
2023-05-06T01:18:11.991Z,32.95
2023-05-06T01:19:11.973Z,32.92
2023-05-06T01:20:11.907Z,32.98
2023-05-06T01:21:11.940Z,33.02
2023-05-06T01:22:11.914Z,32.98
2023-05-06T01:23:11.863Z,32.92
2023-05-06T01:24:11.796Z,33.05
2023-05-06T01:25:11.884Z,32.98
2023-05-06T01:26:11.757Z,32.99
2023-05-06T01:27:11.767Z,33.02
2023-05-06T01:28:11.736Z,32.99
2023-05-06T01:29:11.634Z,32.88
2023-05-06T01:30:11.650Z,32.85
2023-05-06T01:31:11.646Z,32.88
2023-05-06T01:32:11.601Z,32.72
2023-05-06T01:33:11.562Z,32.82
2023-05-06T01:34:11.532Z,32.81
2023-05-06T01:35:11.587Z,32.77
2023-05-06T01:36:11.440Z,32.69
2023-05-06T01:37:11.486Z,32.71
2023-05-06T01:38:11.341Z,32.81
2023-05-06T01:39:11.323Z,32.70
2023-05-06T01:40:11.271Z,32.67
2023-05-06T01:41:11.280Z,32.62
2023-05-06T01:42:11.220Z,32.64
2023-05-06T01:43:11.153Z,32.69
2023-05-06T01:44:11.168Z,32.75
2023-05-06T01:45:11.256Z,32.63
2023-05-06T01:46:11.100Z,32.54
2023-05-06T01:47:11.023Z,32.61
2023-05-06T01:48:11.030Z,32.56
2023-05-06T01:49:11.004Z,32.69
2023-05-06T01:50:10.931Z,32.57
2023-05-06T01:51:10.916Z,32.56
2023-05-06T01:52:10.883Z,32.56
2023-05-06T01:53:10.913Z,32.59
2023-05-06T01:54:10.826Z,32.50
2023-05-06T01:55:11.001Z,32.62
2023-05-06T01:56:10.752Z,32.49
2023-05-06T01:57:10.747Z,32.55
2023-05-06T01:58:10.691Z,32.51
2023-05-06T01:59:10.695Z,32.52
2023-05-06T02:00:10.625Z,32.55
2023-05-06T02:01:10.709Z,32.49
2023-05-06T02:02:10.703Z,32.45
2023-05-06T02:03:10.804Z,32.51
2023-05-06T02:04:10.727Z,32.58
2023-05-06T02:05:10.932Z,32.48
2023-05-06T02:06:10.743Z,32.44
2023-05-06T02:07:10.794Z,32.43
2023-05-06T02:08:10.804Z,32.41
2023-05-06T02:09:10.922Z,32.35
2023-05-06T02:10:10.838Z,32.42
2023-05-06T02:11:10.836Z,32.45
2023-05-06T02:12:10.891Z,32.31
2023-05-06T02:13:10.916Z,32.40
2023-05-06T02:14:10.915Z,32.42
2023-05-06T02:15:11.106Z,32.42
2023-05-06T02:16:10.949Z,32.46
2023-05-06T02:17:10.989Z,32.41
2023-05-06T02:18:10.972Z,32.37
2023-05-06T02:19:11.009Z,32.45
2023-05-06T02:20:11.037Z,32.40
2023-05-06T02:21:11.045Z,32.37
2023-05-06T02:22:11.036Z,32.37
2023-05-06T02:23:11.089Z,32.37
2023-05-06T02:24:11.059Z,32.41
2023-05-06T02:25:11.276Z,32.45
2023-05-06T02:26:11.141Z,32.35
2023-05-06T02:27:11.151Z,32.32
2023-05-06T02:28:11.165Z,32.32
2023-05-06T02:29:11.194Z,32.31
2023-05-06T02:30:11.190Z,32.26
2023-05-06T02:31:11.258Z,32.30
2023-05-06T02:32:11.224Z,32.25
2023-05-06T02:33:11.212Z,32.38
2023-05-06T02:34:11.268Z,32.25
2023-05-06T02:35:11.480Z,32.27
2023-05-06T02:36:11.297Z,32.23
2023-05-06T02:37:11.306Z,32.25
2023-05-06T02:38:11.306Z,32.18
2023-05-06T02:39:11.355Z,32.28
2023-05-06T02:40:11.409Z,32.34
2023-05-06T02:41:11.426Z,32.41
2023-05-06T02:42:11.426Z,32.41
2023-05-06T02:43:11.420Z,32.45
2023-05-06T02:44:11.388Z,32.46
2023-05-06T02:45:11.633Z,32.44
2023-05-06T02:46:11.494Z,32.41
2023-05-06T02:47:11.463Z,32.46
2023-05-06T02:48:11.443Z,32.36
2023-05-06T02:49:11.445Z,32.37
2023-05-06T02:50:11.471Z,32.36
2023-05-06T02:51:11.472Z,32.48
2023-05-06T02:52:11.484Z,32.43
2023-05-06T02:53:11.498Z,32.51
2023-05-06T02:54:11.504Z,32.53
2023-05-06T02:55:11.658Z,32.52
2023-05-06T02:56:11.571Z,32.59
2023-05-06T02:57:11.612Z,32.58
2023-05-06T02:58:11.618Z,32.60
2023-05-06T02:59:11.552Z,32.61
2023-05-06T03:00:11.589Z,32.57
2023-05-06T03:01:11.639Z,32.67
2023-05-06T03:02:11.599Z,32.68
2023-05-06T03:03:11.593Z,32.75
2023-05-06T03:04:11.603Z,32.70
2023-05-06T03:05:11.737Z,32.75
2023-05-06T03:06:11.580Z,32.76
2023-05-06T03:07:11.596Z,32.79
2023-05-06T03:08:11.590Z,32.82
2023-05-06T03:09:11.650Z,32.76
2023-05-06T03:10:11.634Z,32.83
2023-05-06T03:11:11.632Z,32.80
2023-05-06T03:12:11.638Z,32.82
2023-05-06T03:13:11.742Z,32.79
2023-05-06T03:14:11.675Z,32.75
2023-05-06T03:15:11.782Z,32.85
2023-05-06T03:16:11.718Z,32.66
2023-05-06T03:17:11.668Z,32.70
2023-05-06T03:18:11.710Z,32.72
2023-05-06T03:19:11.684Z,32.75
2023-05-06T03:20:11.677Z,32.79
2023-05-06T03:21:11.744Z,32.73
2023-05-06T03:22:11.715Z,32.72
2023-05-06T03:23:11.713Z,32.61
2023-05-06T03:24:11.769Z,32.68
2023-05-06T03:25:11.973Z,32.68
2023-05-06T03:26:11.740Z,32.69
2023-05-06T03:27:11.757Z,32.55
2023-05-06T03:28:11.765Z,32.54
2023-05-06T03:29:11.940Z,32.57
2023-05-06T03:30:11.781Z,32.51
2023-05-06T03:31:11.788Z,32.52
2023-05-06T03:32:11.838Z,32.51
2023-05-06T03:33:11.838Z,32.61
2023-05-06T03:34:11.898Z,32.45
2023-05-06T03:35:12.086Z,32.55
2023-05-06T03:36:11.880Z,32.50
2023-05-06T03:37:11.922Z,32.53
2023-05-06T03:38:11.915Z,32.43
2023-05-06T03:39:11.954Z,32.40
2023-05-06T03:40:11.994Z,32.37
2023-05-06T03:41:11.988Z,32.41
2023-05-06T03:42:11.999Z,32.34
2023-05-06T03:43:11.985Z,32.30
2023-05-06T03:44:12.024Z,32.34
2023-05-06T03:45:12.565Z,32.46
2023-05-06T03:46:12.073Z,32.39
2023-05-06T03:47:12.065Z,32.26
2023-05-06T03:48:12.128Z,32.30
2023-05-06T03:49:12.109Z,32.24
2023-05-06T03:50:12.156Z,32.33
2023-05-06T03:51:12.159Z,32.32
2023-05-06T03:52:12.184Z,32.24
2023-05-06T03:53:12.206Z,32.29
2023-05-06T03:54:12.189Z,32.33
2023-05-06T03:55:12.401Z,32.35
2023-05-06T03:56:12.185Z,32.23
2023-05-06T03:57:12.227Z,32.33
2023-05-06T03:58:12.245Z,32.26
2023-05-06T03:59:12.259Z,32.16
2023-05-06T04:00:12.279Z,32.19
2023-05-06T04:01:12.431Z,32.10
2023-05-06T04:02:12.360Z,32.19
2023-05-06T04:03:12.427Z,32.22
2023-05-06T04:04:12.518Z,32.22
2023-05-06T04:05:12.458Z,32.15
2023-05-06T04:06:12.394Z,32.24
2023-05-06T04:07:12.444Z,32.22
2023-05-06T04:08:12.492Z,32.30
2023-05-06T04:09:12.488Z,32.26
2023-05-06T04:10:12.503Z,32.29
2023-05-06T04:11:12.513Z,32.24
2023-05-06T04:12:12.525Z,32.31
2023-05-06T04:13:12.584Z,32.31
2023-05-06T04:14:12.551Z,32.21
2023-05-06T04:15:12.728Z,32.32
2023-05-06T04:16:12.648Z,32.30
2023-05-06T04:17:12.645Z,32.32
2023-05-06T04:18:12.586Z,32.42
2023-05-06T04:19:12.606Z,32.37
2023-05-06T04:20:12.603Z,32.43
2023-05-06T04:21:12.613Z,32.47
2023-05-06T04:22:12.611Z,32.48
2023-05-06T04:23:12.598Z,32.53
2023-05-06T04:24:12.598Z,32.53
2023-05-06T04:25:12.747Z,32.58
2023-05-06T04:26:12.605Z,32.58
2023-05-06T04:27:12.614Z,32.61
2023-05-06T04:28:12.607Z,32.63
2023-05-06T04:29:12.600Z,32.59
2023-05-06T04:30:12.659Z,32.65
2023-05-06T04:31:12.616Z,32.68
2023-05-06T04:32:12.626Z,32.65
2023-05-06T04:33:12.697Z,32.63
2023-05-06T04:34:12.596Z,32.65
2023-05-06T04:35:12.705Z,32.69
2023-05-06T04:36:12.610Z,32.62
2023-05-06T04:37:12.618Z,32.69
2023-05-06T04:38:12.622Z,32.62
2023-05-06T04:39:12.615Z,32.68
2023-05-06T04:40:12.605Z,32.62
2023-05-06T04:41:12.628Z,32.62
2023-05-06T04:42:12.660Z,32.70
2023-05-06T04:43:12.656Z,32.70
2023-05-06T04:44:12.674Z,32.76
2023-05-06T04:45:12.671Z,32.66
2023-05-06T04:46:12.711Z,32.69
2023-05-06T04:47:12.643Z,32.69
2023-05-06T04:48:12.637Z,32.69
2023-05-06T04:49:12.807Z,32.65
2023-05-06T04:50:12.644Z,32.69
2023-05-06T04:51:12.613Z,32.69
2023-05-06T04:52:12.578Z,32.69
2023-05-06T04:53:12.614Z,32.48
2023-05-06T04:54:12.652Z,32.46
2023-05-06T04:55:12.906Z,32.45
2023-05-06T04:56:12.649Z,32.50
2023-05-06T04:57:12.655Z,32.44
2023-05-06T04:58:12.648Z,32.40
2023-05-06T04:59:13.227Z,32.36
2023-05-06T05:00:12.700Z,32.38
2023-05-06T05:01:12.686Z,32.44
2023-05-06T05:02:12.660Z,32.37
2023-05-06T05:03:12.814Z,32.35
2023-05-06T05:04:12.662Z,32.41
2023-05-06T05:05:12.854Z,32.36
2023-05-06T05:06:12.670Z,32.32
2023-05-06T05:07:12.691Z,32.46
2023-05-06T05:08:12.683Z,32.45
2023-05-06T05:09:12.672Z,32.43
2023-05-06T05:10:12.675Z,32.39
2023-05-06T05:11:12.711Z,32.36
2023-05-06T05:12:12.766Z,32.31
2023-05-06T05:13:12.718Z,32.32
2023-05-06T05:14:12.728Z,32.32
2023-05-06T05:15:12.953Z,32.35
2023-05-06T05:16:12.757Z,32.39
2023-05-06T05:17:12.828Z,32.27
2023-05-06T05:18:12.849Z,32.32
2023-05-06T05:19:12.812Z,32.30
2023-05-06T05:20:12.816Z,32.28
2023-05-06T05:21:12.903Z,32.23
2023-05-06T05:22:12.889Z,32.32
2023-05-06T05:23:12.830Z,32.32
2023-05-06T05:24:12.877Z,32.28
2023-05-06T05:25:13.200Z,32.34
2023-05-06T05:26:12.857Z,32.35
2023-05-06T05:27:12.860Z,32.40
2023-05-06T05:28:12.815Z,32.44
2023-05-06T05:29:13.732Z,32.45
2023-05-06T05:30:12.813Z,32.50
2023-05-06T05:31:12.821Z,32.50
2023-05-06T05:32:12.810Z,32.52
2023-05-06T05:33:12.851Z,32.51
2023-05-06T05:34:12.789Z,32.61
2023-05-06T05:35:12.826Z,32.52
2023-05-06T05:36:12.787Z,32.59
2023-05-06T05:37:12.853Z,32.52
2023-05-06T05:38:12.789Z,32.58
2023-05-06T05:39:12.774Z,32.62
2023-05-06T05:40:12.782Z,32.65
2023-05-06T05:41:13.127Z,32.65
2023-05-06T05:42:12.820Z,32.55
2023-05-06T05:43:12.828Z,32.61
2023-05-06T05:44:12.777Z,32.59
2023-05-06T05:45:12.783Z,32.50
2023-05-06T05:46:12.818Z,32.52
2023-05-06T05:47:12.798Z,32.45
2023-05-06T05:48:12.730Z,32.43
2023-05-06T05:49:12.722Z,32.43
2023-05-06T05:50:12.716Z,32.40
2023-05-06T05:51:12.726Z,32.34
2023-05-06T05:52:12.767Z,32.35
2023-05-06T05:53:12.753Z,32.31
2023-05-06T05:54:12.800Z,32.36
2023-05-06T05:55:13.738Z,32.32
2023-05-06T05:56:12.812Z,32.26
2023-05-06T05:57:12.781Z,32.29
2023-05-06T05:58:12.825Z,32.42
2023-05-06T05:59:12.804Z,32.34
2023-05-06T06:00:13.732Z,32.24
2023-05-06T06:01:12.789Z,32.30
2023-05-06T06:02:12.847Z,32.30
2023-05-06T06:03:12.960Z,32.21
2023-05-06T06:04:12.910Z,32.15
2023-05-06T06:05:12.882Z,32.17
2023-05-06T06:06:12.885Z,32.19
2023-05-06T06:07:12.936Z,32.19
2023-05-06T06:08:12.894Z,32.16
2023-05-06T06:09:12.929Z,32.13
2023-05-06T06:10:12.952Z,32.09
2023-05-06T06:11:12.951Z,32.16
2023-05-06T06:12:12.948Z,32.06
2023-05-06T06:13:12.957Z,32.10
2023-05-06T06:14:12.993Z,32.08
2023-05-06T06:15:12.965Z,32.14
2023-05-06T06:16:13.144Z,32.05
2023-05-06T06:17:13.062Z,32.01
2023-05-06T06:18:13.058Z,32.18
2023-05-06T06:19:13.039Z,32.15
2023-05-06T06:20:13.755Z,32.15
2023-05-06T06:21:13.085Z,32.18
2023-05-06T06:22:13.112Z,32.24
2023-05-06T06:23:13.104Z,32.32
2023-05-06T06:24:13.101Z,32.20
2023-05-06T06:25:13.255Z,32.30
2023-05-06T06:26:13.149Z,32.19
2023-05-06T06:27:13.193Z,32.31
2023-05-06T06:28:13.135Z,32.24
2023-05-06T06:29:13.177Z,32.25
2023-05-06T06:30:13.176Z,32.17
2023-05-06T06:31:13.195Z,32.22
2023-05-06T06:32:13.285Z,32.19
2023-05-06T06:33:13.197Z,32.25
2023-05-06T06:34:13.208Z,32.21
2023-05-06T06:35:13.248Z,32.27
2023-05-06T06:36:13.257Z,32.35
2023-05-06T06:37:13.247Z,32.32
2023-05-06T06:38:13.243Z,32.34
2023-05-06T06:39:13.252Z,32.34
2023-05-06T06:40:13.290Z,32.35
2023-05-06T06:41:13.315Z,32.38
2023-05-06T06:42:13.297Z,32.37
2023-05-06T06:43:13.266Z,32.45
2023-05-06T06:44:13.235Z,32.39
2023-05-06T06:45:13.316Z,32.42
2023-05-06T06:46:13.297Z,32.46
2023-05-06T06:47:13.229Z,32.46
2023-05-06T06:48:13.277Z,32.40
2023-05-06T06:49:13.277Z,32.46
2023-05-06T06:50:13.254Z,32.50
2023-05-06T06:51:13.249Z,32.50
2023-05-06T06:52:13.273Z,32.49
2023-05-06T06:53:13.269Z,32.53
2023-05-06T06:54:13.282Z,32.47
2023-05-06T06:55:13.427Z,32.52
2023-05-06T06:56:13.283Z,32.50
2023-05-06T06:57:13.337Z,32.56
2023-05-06T06:58:13.305Z,32.59
2023-05-06T06:59:13.245Z,32.64
2023-05-06T07:00:13.262Z,32.58
2023-05-06T07:01:13.300Z,32.65
2023-05-06T07:02:13.292Z,32.66
2023-05-06T07:03:13.258Z,32.65
2023-05-06T07:04:13.329Z,32.64
2023-05-06T07:05:13.368Z,32.60
2023-05-06T07:06:13.267Z,32.67
2023-05-06T07:07:13.275Z,32.67
2023-05-06T07:08:13.244Z,32.61
2023-05-06T07:09:13.265Z,32.59
2023-05-06T07:10:13.275Z,32.55
2023-05-06T07:11:13.264Z,32.58
2023-05-06T07:12:13.272Z,32.51
2023-05-06T07:13:13.533Z,32.58
2023-05-06T07:14:13.264Z,32.49
2023-05-06T07:15:13.518Z,32.49
2023-05-06T07:16:13.264Z,32.44
2023-05-06T07:17:13.315Z,32.48
2023-05-06T07:18:13.329Z,32.51
2023-05-06T07:19:13.295Z,32.46
2023-05-06T07:20:13.345Z,32.48
2023-05-06T07:21:13.306Z,32.46
2023-05-06T07:22:13.306Z,32.49
2023-05-06T07:23:13.318Z,32.49
2023-05-06T07:24:13.313Z,32.46
2023-05-06T07:25:13.408Z,32.45
2023-05-06T07:26:13.332Z,32.39
2023-05-06T07:27:13.350Z,32.37
2023-05-06T07:28:13.331Z,32.38
2023-05-06T07:29:13.425Z,32.38
2023-05-06T07:30:13.294Z,32.32
2023-05-06T07:31:13.380Z,32.34
2023-05-06T07:32:13.290Z,32.30
2023-05-06T07:33:13.306Z,32.28
2023-05-06T07:34:13.294Z,32.26
2023-05-06T07:35:13.339Z,32.23
2023-05-06T07:36:13.247Z,32.24
2023-05-06T07:37:13.270Z,32.23
2023-05-06T07:38:13.257Z,32.16
2023-05-06T07:39:13.266Z,32.15
2023-05-06T07:40:13.280Z,32.16
2023-05-06T07:41:13.268Z,32.18
2023-05-06T07:42:13.283Z,32.22
2023-05-06T07:43:13.286Z,32.20
2023-05-06T07:44:13.248Z,32.14
2023-05-06T07:45:13.449Z,32.18
2023-05-06T07:46:13.312Z,32.15
2023-05-06T07:47:13.309Z,32.14
2023-05-06T07:48:13.369Z,32.09
2023-05-06T07:49:13.266Z,32.14
2023-05-06T07:50:13.317Z,32.01
2023-05-06T07:51:13.317Z,31.94
2023-05-06T07:52:13.347Z,31.94
2023-05-06T07:53:13.331Z,31.99
2023-05-06T07:54:13.357Z,32.00
2023-05-06T07:55:13.631Z,31.96
2023-05-06T07:56:13.378Z,31.92
2023-05-06T07:57:13.465Z,31.93
2023-05-06T07:58:13.408Z,31.99
2023-05-06T07:59:13.417Z,31.89
2023-05-06T08:00:13.429Z,31.88
2023-05-06T08:01:13.519Z,31.95
2023-05-06T08:02:13.507Z,31.95
2023-05-06T08:03:13.540Z,31.81
2023-05-06T08:04:13.712Z,31.88
2023-05-06T08:05:13.511Z,31.90
2023-05-06T08:06:13.477Z,31.77
2023-05-06T08:07:13.529Z,31.71
2023-05-06T08:08:13.529Z,31.76
2023-05-06T08:09:22.004Z,31.77
2023-05-06T08:10:14.504Z,31.87
2023-05-06T08:11:13.442Z,31.80
2023-05-06T08:12:13.434Z,31.88
2023-05-06T08:13:13.487Z,31.93
2023-05-06T08:14:13.337Z,31.87
2023-05-06T08:15:13.407Z,31.99
2023-05-06T08:16:13.284Z,31.86
2023-05-06T08:17:13.265Z,31.86
2023-05-06T08:18:21.530Z,31.76
2023-05-06T08:19:14.113Z,32.21
2023-05-06T08:20:13.057Z,32.03
2023-05-06T08:21:13.052Z,31.86
2023-05-06T08:22:12.997Z,31.83
2023-05-06T08:23:12.953Z,31.72
2023-05-06T08:24:12.890Z,31.72
2023-05-06T08:25:12.996Z,31.61
2023-05-06T08:26:12.793Z,31.78
2023-05-06T08:27:12.764Z,31.88
2023-05-06T08:28:12.720Z,31.71
2023-05-06T08:29:12.678Z,31.61
2023-05-06T08:30:12.722Z,31.51
2023-05-06T08:31:12.768Z,31.50
2023-05-06T08:32:12.741Z,31.48
2023-05-06T08:33:12.794Z,31.50
2023-05-06T08:34:12.798Z,31.54
2023-05-06T08:35:12.977Z,31.57
2023-05-06T08:36:12.797Z,31.48
2023-05-06T08:37:12.793Z,31.48
2023-05-06T08:38:12.805Z,31.56
2023-05-06T08:39:12.762Z,31.48
2023-05-06T08:40:12.777Z,31.43
2023-05-06T08:41:12.792Z,31.50
2023-05-06T08:42:12.835Z,31.54
2023-05-06T08:43:12.835Z,31.60
2023-05-06T08:44:12.785Z,31.56
2023-05-06T08:45:12.866Z,31.57
2023-05-06T08:46:12.810Z,31.64
2023-05-06T08:47:12.809Z,31.64
2023-05-06T08:48:12.852Z,31.73
2023-05-06T08:49:12.852Z,31.73
2023-05-06T08:50:12.877Z,31.81
2023-05-06T08:51:12.849Z,31.78
2023-05-06T08:52:12.801Z,31.77
2023-05-06T08:53:12.807Z,31.74
2023-05-06T08:54:12.803Z,31.68
2023-05-06T08:55:13.109Z,31.75
2023-05-06T08:56:12.886Z,31.81
2023-05-06T08:57:12.888Z,31.76
2023-05-06T08:58:12.885Z,31.82
2023-05-06T08:59:12.880Z,31.78
2023-05-06T09:00:12.915Z,31.87
2023-05-06T09:01:12.911Z,31.84
2023-05-06T09:02:12.938Z,31.85
2023-05-06T09:03:13.061Z,31.83
2023-05-06T09:04:12.896Z,31.89
2023-05-06T09:05:13.157Z,31.96
2023-05-06T09:06:12.930Z,31.93
2023-05-06T09:07:12.910Z,31.94
2023-05-06T09:08:12.910Z,31.96
2023-05-06T09:09:12.899Z,31.93
2023-05-06T09:10:12.886Z,32.04
2023-05-06T09:11:12.924Z,32.04
2023-05-06T09:12:12.900Z,31.98
2023-05-06T09:13:13.020Z,32.02
2023-05-06T09:14:12.909Z,32.02
2023-05-06T09:15:13.181Z,32.08
2023-05-06T09:16:12.989Z,32.10
2023-05-06T09:17:12.966Z,32.18
2023-05-06T09:18:13.041Z,32.26
2023-05-06T09:19:12.959Z,32.25
2023-05-06T09:20:12.922Z,32.26
2023-05-06T09:21:12.902Z,32.29
2023-05-06T09:22:12.938Z,32.30
2023-05-06T09:23:12.944Z,32.36
2023-05-06T09:24:12.914Z,32.36
2023-05-06T09:25:13.073Z,32.47
2023-05-06T09:26:12.921Z,32.46
2023-05-06T09:27:15.066Z,32.43
2023-05-06T09:28:12.938Z,32.51
2023-05-06T09:29:12.943Z,32.60
2023-05-06T09:30:12.877Z,32.67
2023-05-06T09:31:12.915Z,32.65
2023-05-06T09:32:12.892Z,32.70
2023-05-06T09:33:12.942Z,32.70
2023-05-06T09:34:12.920Z,32.77
2023-05-06T09:35:13.133Z,32.88
2023-05-06T09:36:12.884Z,32.88
2023-05-06T09:37:12.875Z,32.92
2023-05-06T09:38:12.941Z,32.86
2023-05-06T09:39:12.834Z,32.88
2023-05-06T09:40:12.847Z,32.91
2023-05-06T09:41:12.822Z,33.03
2023-05-06T09:42:12.871Z,33.08
2023-05-06T09:43:12.813Z,33.16
2023-05-06T09:44:12.864Z,33.15
2023-05-06T09:45:12.939Z,33.16
2023-05-06T09:46:12.826Z,33.22
2023-05-06T09:47:12.782Z,33.33
2023-05-06T09:48:12.811Z,33.37
2023-05-06T09:49:12.770Z,33.37
2023-05-06T09:50:12.717Z,33.37
2023-05-06T09:51:12.696Z,33.37
2023-05-06T09:52:12.737Z,33.39
2023-05-06T09:53:12.741Z,33.51
2023-05-06T09:54:12.680Z,33.42
2023-05-06T09:55:12.914Z,33.44
2023-05-06T09:56:12.655Z,33.40
2023-05-06T09:57:12.640Z,33.39
2023-05-06T09:58:12.599Z,33.37
2023-05-06T09:59:12.594Z,33.34
2023-05-06T10:00:12.678Z,33.30
2023-05-06T10:01:15.195Z,33.37
2023-05-06T10:02:13.582Z,33.42
2023-05-06T10:03:12.619Z,33.40
2023-05-06T10:04:12.567Z,33.36
2023-05-06T10:05:12.673Z,33.33
2023-05-06T10:06:12.335Z,33.27
2023-05-06T10:07:12.306Z,33.26
2023-05-06T10:08:12.292Z,33.32
2023-05-06T10:09:12.222Z,33.24
2023-05-06T10:10:12.287Z,33.21
2023-05-06T10:11:12.215Z,33.27
2023-05-06T10:12:12.112Z,33.11
2023-05-06T10:13:12.147Z,33.14
2023-05-06T10:14:12.036Z,33.11
2023-05-06T10:15:12.183Z,33.03
2023-05-06T10:16:14.556Z,32.99
2023-05-06T10:17:11.957Z,33.02
2023-05-06T10:18:11.821Z,32.94
2023-05-06T10:19:11.800Z,32.94
2023-05-06T10:20:11.730Z,32.97
2023-05-06T10:21:11.703Z,32.88
2023-05-06T10:22:11.642Z,32.78
2023-05-06T10:23:11.591Z,32.93
2023-05-06T10:24:11.647Z,32.90
2023-05-06T10:25:11.687Z,32.80
2023-05-06T10:26:11.499Z,32.77
2023-05-06T10:27:11.437Z,32.76
2023-05-06T10:28:23.011Z,32.79
2023-05-06T10:29:12.356Z,32.70
2023-05-06T10:30:11.271Z,32.57
2023-05-06T10:31:11.283Z,32.77
2023-05-06T10:32:11.171Z,32.68
2023-05-06T10:33:11.128Z,32.62
2023-05-06T10:34:11.126Z,32.67
2023-05-06T10:35:11.265Z,32.65
2023-05-06T10:36:11.067Z,32.63
2023-05-06T10:37:10.960Z,32.75
2023-05-06T10:38:10.912Z,32.53
2023-05-06T10:39:10.913Z,32.66
2023-05-06T10:40:10.932Z,32.40
2023-05-06T10:41:10.968Z,32.30
2023-05-06T10:42:10.927Z,32.29
2023-05-06T10:43:10.896Z,32.64
2023-05-06T10:44:10.920Z,32.57
2023-05-06T10:45:11.120Z,32.48
2023-05-06T10:46:10.988Z,32.46
2023-05-06T10:47:10.890Z,32.45
2023-05-06T10:48:10.957Z,32.36
2023-05-06T10:49:11.015Z,32.51
2023-05-06T10:50:10.894Z,32.35
2023-05-06T10:51:10.906Z,32.32
2023-05-06T10:52:10.912Z,32.35
2023-05-06T10:53:10.913Z,32.35
2023-05-06T10:54:10.897Z,32.30
2023-05-06T10:55:11.055Z,32.26
2023-05-06T10:56:10.925Z,32.31
2023-05-06T10:57:10.959Z,32.20
2023-05-06T10:58:10.899Z,32.20
2023-05-06T10:59:10.899Z,32.20
2023-05-06T11:00:10.904Z,32.19
2023-05-06T11:01:10.942Z,32.22
2023-05-06T11:02:10.918Z,32.19
2023-05-06T11:03:11.000Z,32.16
2023-05-06T11:04:10.913Z,32.12
2023-05-06T11:05:11.085Z,32.06
2023-05-06T11:06:10.888Z,32.05
2023-05-06T11:07:10.937Z,32.06
2023-05-06T11:08:10.918Z,32.16
2023-05-06T11:09:10.918Z,32.09
2023-05-06T11:10:10.935Z,32.08
2023-05-06T11:11:10.911Z,32.11
2023-05-06T11:12:10.883Z,31.95
2023-05-06T11:13:11.051Z,31.97
2023-05-06T11:14:10.924Z,31.94
2023-05-06T11:15:11.133Z,31.95
2023-05-06T11:16:10.925Z,31.98
2023-05-06T11:17:10.964Z,31.94
2023-05-06T11:18:10.924Z,31.97
2023-05-06T11:19:10.911Z,31.97
2023-05-06T11:20:11.194Z,31.93
2023-05-06T11:21:10.890Z,31.94
2023-05-06T11:22:10.953Z,31.93
2023-05-06T11:23:10.883Z,31.94
2023-05-06T11:24:10.873Z,31.87
2023-05-06T11:25:10.878Z,31.86
2023-05-06T11:26:10.886Z,31.84
2023-05-06T11:27:10.848Z,31.90
2023-05-06T11:28:10.873Z,31.86
2023-05-06T11:29:10.945Z,31.86
2023-05-06T11:30:11.088Z,31.78
2023-05-06T11:31:10.860Z,31.82
2023-05-06T11:32:10.833Z,31.80
2023-05-06T11:33:10.846Z,31.73
2023-05-06T11:34:10.853Z,31.73
2023-05-06T11:35:10.853Z,31.73
2023-05-06T11:36:10.810Z,31.69
2023-05-06T11:37:10.822Z,31.63
2023-05-06T11:38:10.923Z,31.66
2023-05-06T11:39:10.808Z,31.63
2023-05-06T11:40:11.090Z,31.61
2023-05-06T11:41:10.829Z,31.64
2023-05-06T11:42:10.828Z,31.64
2023-05-06T11:43:10.837Z,31.51
2023-05-06T11:44:11.635Z,31.55
2023-05-06T11:45:10.857Z,31.57
2023-05-06T11:46:10.862Z,31.57
2023-05-06T11:47:10.821Z,31.60
2023-05-06T11:48:10.817Z,31.74
2023-05-06T11:49:10.792Z,31.73
2023-05-06T11:50:11.094Z,31.65
2023-05-06T11:51:10.815Z,31.75
2023-05-06T11:52:10.861Z,31.70
2023-05-06T11:53:10.805Z,31.49
2023-05-06T11:54:10.824Z,31.42
2023-05-06T11:55:10.788Z,31.46
2023-05-06T11:56:10.836Z,31.49
2023-05-06T11:57:10.811Z,31.46
2023-05-06T11:58:10.805Z,31.43
2023-05-06T11:59:10.788Z,31.35
2023-05-06T12:00:10.926Z,31.39
2023-05-06T12:01:10.771Z,31.38
2023-05-06T12:02:10.773Z,31.41
2023-05-06T12:03:10.815Z,31.39
2023-05-06T12:04:10.843Z,31.37
2023-05-06T12:05:10.799Z,31.28
2023-05-06T12:06:10.752Z,31.32
2023-05-06T12:07:10.844Z,31.40
2023-05-06T12:08:20.040Z,31.38
2023-05-06T12:09:11.731Z,31.28
2023-05-06T12:10:10.846Z,31.21
2023-05-06T12:11:10.613Z,31.17
2023-05-06T12:12:10.566Z,31.21
2023-05-06T12:13:10.526Z,31.24
2023-05-06T12:14:10.470Z,31.22
2023-05-06T12:15:10.442Z,31.24
2023-05-06T12:16:10.373Z,31.17
2023-05-06T12:17:10.449Z,31.18
2023-05-06T12:18:10.261Z,31.10
2023-05-06T12:19:10.243Z,31.15
2023-05-06T12:20:10.360Z,31.15
2023-05-06T12:21:10.132Z,31.12
2023-05-06T12:22:10.111Z,31.15
2023-05-06T12:23:10.170Z,31.21
2023-05-06T12:24:10.180Z,31.15
2023-05-06T12:25:10.272Z,31.17
2023-05-06T12:26:10.146Z,31.20
2023-05-06T12:27:10.116Z,31.21
2023-05-06T12:28:10.184Z,31.14
2023-05-06T12:29:10.118Z,30.96
2023-05-06T12:30:10.220Z,31.00
2023-05-06T12:31:10.109Z,30.91
2023-05-06T12:32:10.518Z,30.97
2023-05-06T12:33:10.145Z,30.83
2023-05-06T12:34:10.130Z,30.83
2023-05-06T12:35:10.079Z,30.86
2023-05-06T12:36:10.095Z,30.71
2023-05-06T12:37:10.073Z,30.75
2023-05-06T12:38:10.095Z,30.85
2023-05-06T12:39:10.107Z,30.89
2023-05-06T12:40:10.258Z,30.91
2023-05-06T12:41:10.107Z,30.76
2023-05-06T12:42:10.077Z,30.77
2023-05-06T12:43:10.058Z,30.74
2023-05-06T12:44:10.081Z,30.74
2023-05-06T12:45:10.042Z,30.83
2023-05-06T12:46:10.086Z,30.79
2023-05-06T12:47:10.085Z,30.74
2023-05-06T12:48:10.106Z,30.66
2023-05-06T12:49:10.155Z,30.63
2023-05-06T12:50:10.241Z,30.56
2023-05-06T12:51:10.020Z,30.59
2023-05-06T12:52:10.011Z,30.59